sensor_id;sensor_type;location;lat;lon;timestamp;pressure;altitude;pressure_sealevel;temperature;humidity
50682;BME280;36779;52.168;20.878;2023-02-23T00:00:31;101002.36;;;-1.72;69.98
50682;BME280;36779;52.168;20.878;2023-02-23T00:03:15;101002.86;;;-1.75;70.00
50682;BME280;36779;52.168;20.878;2023-02-23T00:05:47;101001.12;;;-1.75;69.93
50682;BME280;36779;52.168;20.878;2023-02-23T00:08:19;101001.06;;;-1.74;69.97
50682;BME280;36779;52.168;20.878;2023-02-23T00:10:53;100999.01;;;-1.71;69.97
50682;BME280;36779;52.168;20.878;2023-02-23T00:13:30;100998.80;;;-1.70;70.02
50682;BME280;36779;52.168;20.878;2023-02-23T00:16:06;100990.48;;;-1.71;69.96
50682;BME280;36779;52.168;20.878;2023-02-23T00:18:45;100992.12;;;-1.73;69.98
50682;BME280;36779;52.168;20.878;2023-02-23T00:21:19;100989.89;;;-1.77;69.84
50682;BME280;36779;52.168;20.878;2023-02-23T00:23:53;100989.07;;;-1.83;69.91
50682;BME280;36779;52.168;20.878;2023-02-23T00:26:29;100990.86;;;-1.87;69.97
50682;BME280;36779;52.168;20.878;2023-02-23T00:29:07;100987.59;;;-1.92;69.88
50682;BME280;36779;52.168;20.878;2023-02-23T00:31:39;100984.69;;;-1.98;69.96
50682;BME280;36779;52.168;20.878;2023-02-23T00:34:16;100983.66;;;-2.02;69.80
50682;BME280;36779;52.168;20.878;2023-02-23T02:09:37;100935.11;;;-2.97;69.89
50682;BME280;36779;52.168;20.878;2023-02-23T02:12:12;100931.43;;;-2.92;70.01
50682;BME280;36779;52.168;20.878;2023-02-23T02:14:46;100926.54;;;-2.87;70.15
50682;BME280;36779;52.168;20.878;2023-02-23T02:17:29;100922.84;;;-2.86;70.18
50682;BME280;36779;52.168;20.878;2023-02-23T02:20:42;100929.81;;;-2.87;70.00
50682;BME280;36779;52.168;20.878;2023-02-23T02:23:44;100931.48;;;-2.89;70.04
50682;BME280;36779;52.168;20.878;2023-02-23T02:26:28;100929.59;;;-2.90;70.18
50682;BME280;36779;52.168;20.878;2023-02-23T02:35:43;100931.70;;;-2.98;70.04
50682;BME280;36779;52.168;20.878;2023-02-23T02:38:36;100931.01;;;-3.03;69.93
50682;BME280;36779;52.168;20.878;2023-02-23T02:41:18;100929.61;;;-3.07;69.95
50682;BME280;36779;52.168;20.878;2023-02-23T02:43:56;100925.61;;;-3.11;69.83
50682;BME280;36779;52.168;20.878;2023-02-23T02:46:36;100928.48;;;-3.14;70.02
50682;BME280;36779;52.168;20.878;2023-02-23T02:49:14;100925.27;;;-3.16;69.88
50682;BME280;36779;52.168;20.878;2023-02-23T02:51:59;100929.15;;;-3.17;69.87
50682;BME280;36779;52.168;20.878;2023-02-23T02:54:39;100928.36;;;-3.19;69.95
50682;BME280;36779;52.168;20.878;2023-02-23T02:57:13;100930.66;;;-3.20;69.86
50682;BME280;36779;52.168;20.878;2023-02-23T02:59:48;100931.23;;;-3.21;69.90
50682;BME280;36779;52.168;20.878;2023-02-23T03:02:40;100928.39;;;-3.20;69.98
50682;BME280;36779;52.168;20.878;2023-02-23T03:05:38;100926.48;;;-3.16;69.96
50682;BME280;36779;52.168;20.878;2023-02-23T03:08:35;100924.19;;;-3.11;70.01
50682;BME280;36779;52.168;20.878;2023-02-23T03:11:33;100922.33;;;-3.03;70.07
50682;BME280;36779;52.168;20.878;2023-02-23T03:14:31;100917.02;;;-2.96;70.06
50682;BME280;36779;52.168;20.878;2023-02-23T03:17:29;100916.14;;;-2.88;70.22
50682;BME280;36779;52.168;20.878;2023-02-23T03:20:26;100919.58;;;-2.79;70.26
50682;BME280;36779;52.168;20.878;2023-02-23T03:23:20;100917.88;;;-2.71;70.33
50682;BME280;36779;52.168;20.878;2023-02-23T03:26:15;100921.06;;;-2.65;70.43
50682;BME280;36779;52.168;20.878;2023-02-23T03:29:15;100919.15;;;-2.61;70.51
50682;BME280;36779;52.168;20.878;2023-02-23T03:32:13;100922.38;;;-2.58;70.30
50682;BME280;36779;52.168;20.878;2023-02-23T03:35:12;100920.93;;;-2.57;70.39
50682;BME280;36779;52.168;20.878;2023-02-23T03:38:05;100923.86;;;-2.56;70.41
50682;BME280;36779;52.168;20.878;2023-02-23T03:41:01;100924.11;;;-2.54;70.37
50682;BME280;36779;52.168;20.878;2023-02-23T03:43:57;100923.39;;;-2.54;70.34
50682;BME280;36779;52.168;20.878;2023-02-23T03:46:48;100923.16;;;-2.52;70.29
50682;BME280;36779;52.168;20.878;2023-02-23T03:49:40;100927.27;;;-2.51;70.43
50682;BME280;36779;52.168;20.878;2023-02-23T03:52:35;100927.23;;;-2.50;70.33
50682;BME280;36779;52.168;20.878;2023-02-23T03:55:31;100928.73;;;-2.48;70.28
50682;BME280;36779;52.168;20.878;2023-02-23T03:58:26;100926.77;;;-2.47;70.28
50682;BME280;36779;52.168;20.878;2023-02-23T04:01:18;100925.65;;;-2.46;70.31
50682;BME280;36779;52.168;20.878;2023-02-23T04:04:10;100928.42;;;-2.41;70.38
50682;BME280;36779;52.168;20.878;2023-02-23T04:07:03;100928.16;;;-2.35;70.40
50682;BME280;36779;52.168;20.878;2023-02-23T04:09:56;100926.83;;;-2.28;70.50
50682;BME280;36779;52.168;20.878;2023-02-23T04:12:50;100924.48;;;-2.23;70.50
50682;BME280;36779;52.168;20.878;2023-02-23T04:15:46;100920.90;;;-2.17;70.52
50682;BME280;36779;52.168;20.878;2023-02-23T04:18:22;100921.48;;;-2.10;70.47
50682;BME280;36779;52.168;20.878;2023-02-23T04:20:56;100921.88;;;-2.03;70.59
50682;BME280;36779;52.168;20.878;2023-02-23T04:23:30;100927.47;;;-1.96;70.66
50682;BME280;36779;52.168;20.878;2023-02-23T04:26:02;100927.02;;;-1.94;70.63
50682;BME280;36779;52.168;20.878;2023-02-23T04:28:35;100924.46;;;-1.91;70.74
50682;BME280;36779;52.168;20.878;2023-02-23T04:31:07;100924.52;;;-1.88;70.68
50682;BME280;36779;52.168;20.878;2023-02-23T04:33:39;100919.41;;;-1.87;70.82
50682;BME280;36779;52.168;20.878;2023-02-23T04:36:11;100919.35;;;-1.86;70.70
50682;BME280;36779;52.168;20.878;2023-02-23T04:38:43;100918.26;;;-1.85;70.81
50682;BME280;36779;52.168;20.878;2023-02-23T04:41:16;100917.80;;;-1.86;70.65
50682;BME280;36779;52.168;20.878;2023-02-23T04:43:49;100914.89;;;-1.87;70.71
50682;BME280;36779;52.168;20.878;2023-02-23T04:46:21;100913.04;;;-1.89;70.70
50682;BME280;36779;52.168;20.878;2023-02-23T04:48:53;100909.07;;;-1.90;70.69
50682;BME280;36779;52.168;20.878;2023-02-23T04:51:25;100909.89;;;-1.89;70.66
50682;BME280;36779;52.168;20.878;2023-02-23T04:54:03;100910.31;;;-1.86;70.62
50682;BME280;36779;52.168;20.878;2023-02-23T04:56:35;100910.01;;;-1.83;70.75
50682;BME280;36779;52.168;20.878;2023-02-23T04:59:09;100909.87;;;-1.80;70.69
50682;BME280;36779;52.168;20.878;2023-02-23T05:01:41;100908.33;;;-1.77;70.76
50682;BME280;36779;52.168;20.878;2023-02-23T05:04:13;100912.70;;;-1.74;70.74
50682;BME280;36779;52.168;20.878;2023-02-23T05:06:46;100909.12;;;-1.72;70.76
50682;BME280;36779;52.168;20.878;2023-02-23T05:09:18;100909.50;;;-1.69;70.80
50682;BME280;36779;52.168;20.878;2023-02-23T05:11:50;100909.91;;;-1.66;70.88
50682;BME280;36779;52.168;20.878;2023-02-23T05:14:22;100906.34;;;-1.65;70.89
50682;BME280;36779;52.168;20.878;2023-02-23T05:16:55;100907.89;;;-1.64;70.92
50682;BME280;36779;52.168;20.878;2023-02-23T05:19:27;100910.00;;;-1.65;70.88
50682;BME280;36779;52.168;20.878;2023-02-23T05:22:01;100907.33;;;-1.67;70.92
50682;BME280;36779;52.168;20.878;2023-02-23T05:24:33;100904.79;;;-1.69;70.86
50682;BME280;36779;52.168;20.878;2023-02-23T05:27:07;100901.08;;;-1.71;70.90
50682;BME280;36779;52.168;20.878;2023-02-23T05:29:39;100901.90;;;-1.74;70.88
50682;BME280;36779;52.168;20.878;2023-02-23T05:32:12;100900.73;;;-1.75;71.04
50682;BME280;36779;52.168;20.878;2023-02-23T05:34:45;100901.41;;;-1.75;71.00
50682;BME280;36779;52.168;20.878;2023-02-23T05:37:17;100898.89;;;-1.73;70.96
50682;BME280;36779;52.168;20.878;2023-02-23T05:39:49;100898.93;;;-1.70;70.98
50682;BME280;36779;52.168;20.878;2023-02-23T05:42:22;100899.10;;;-1.66;71.08
50682;BME280;36779;52.168;20.878;2023-02-23T05:44:54;100902.96;;;-1.63;71.10
50682;BME280;36779;52.168;20.878;2023-02-23T05:47:26;100905.45;;;-1.60;71.03
50682;BME280;36779;52.168;20.878;2023-02-23T05:50:01;100903.68;;;-1.56;71.10
50682;BME280;36779;52.168;20.878;2023-02-23T05:52:37;100903.14;;;-1.52;71.13
50682;BME280;36779;52.168;20.878;2023-02-23T05:55:12;100903.86;;;-1.49;71.14
50682;BME280;36779;52.168;20.878;2023-02-23T05:57:45;100906.05;;;-1.47;71.23
50682;BME280;36779;52.168;20.878;2023-02-23T06:00:18;100902.02;;;-1.47;71.31
50682;BME280;36779;52.168;20.878;2023-02-23T06:02:51;100904.98;;;-1.47;71.22
50682;BME280;36779;52.168;20.878;2023-02-23T06:05:23;100906.55;;;-1.47;71.24
50682;BME280;36779;52.168;20.878;2023-02-23T06:07:55;100907.25;;;-1.47;71.21
50682;BME280;36779;52.168;20.878;2023-02-23T06:10:28;100912.64;;;-1.46;71.35
50682;BME280;36779;52.168;20.878;2023-02-23T06:13:01;100906.17;;;-1.46;71.34
50682;BME280;36779;52.168;20.878;2023-02-23T06:15:33;100905.23;;;-1.45;71.35
50682;BME280;36779;52.168;20.878;2023-02-23T06:18:06;100905.02;;;-1.40;71.36
50682;BME280;36779;52.168;20.878;2023-02-23T06:20:39;100910.36;;;-1.35;71.35
50682;BME280;36779;52.168;20.878;2023-02-23T06:23:11;100909.27;;;-1.30;71.38
50682;BME280;36779;52.168;20.878;2023-02-23T06:25:46;100911.06;;;-1.24;71.40
50682;BME280;36779;52.168;20.878;2023-02-23T06:28:19;100909.70;;;-1.17;71.37
50682;BME280;36779;52.168;20.878;2023-02-23T06:30:54;100907.63;;;-1.11;71.41
50682;BME280;36779;52.168;20.878;2023-02-23T06:33:26;100909.82;;;-1.06;71.54
50682;BME280;36779;52.168;20.878;2023-02-23T06:35:59;100916.56;;;-1.01;71.50
50682;BME280;36779;52.168;20.878;2023-02-23T06:38:31;100914.85;;;-0.98;71.30
50682;BME280;36779;52.168;20.878;2023-02-23T06:41:09;100917.24;;;-0.97;71.48
50682;BME280;36779;52.168;20.878;2023-02-23T06:43:41;100916.09;;;-0.95;71.49
50682;BME280;36779;52.168;20.878;2023-02-23T06:46:14;100915.61;;;-0.92;71.45
50682;BME280;36779;52.168;20.878;2023-02-23T06:48:47;100916.05;;;-0.90;71.46
50682;BME280;36779;52.168;20.878;2023-02-23T06:51:19;100915.20;;;-0.88;71.49
50682;BME280;36779;52.168;20.878;2023-02-23T06:53:51;100913.28;;;-0.84;71.53
50682;BME280;36779;52.168;20.878;2023-02-23T06:56:24;100912.98;;;-0.78;71.52
50682;BME280;36779;52.168;20.878;2023-02-23T06:58:56;100917.52;;;-0.71;71.57
50682;BME280;36779;52.168;20.878;2023-02-23T07:01:29;100916.14;;;-0.64;71.61
50682;BME280;36779;52.168;20.878;2023-02-23T07:04:03;100919.60;;;-0.57;71.50
50682;BME280;36779;52.168;20.878;2023-02-23T07:06:35;100919.19;;;-0.49;71.60
50682;BME280;36779;52.168;20.878;2023-02-23T07:09:07;100921.66;;;-0.43;71.64
50682;BME280;36779;52.168;20.878;2023-02-23T07:11:41;100921.96;;;-0.35;71.83
50682;BME280;36779;52.168;20.878;2023-02-23T07:14:15;100921.68;;;-0.27;71.84
50682;BME280;36779;52.168;20.878;2023-02-23T07:16:57;100916.11;;;-0.17;71.81
50682;BME280;36779;52.168;20.878;2023-02-23T07:19:31;100915.46;;;-0.07;71.91
50682;BME280;36779;52.168;20.878;2023-02-23T07:22:03;100913.76;;;-0.02;71.78
50682;BME280;36779;52.168;20.878;2023-02-23T07:24:35;100908.94;;;0.00;71.80
50682;BME280;36779;52.168;20.878;2023-02-23T07:27:08;100913.75;;;0.05;71.66
50682;BME280;36779;52.168;20.878;2023-02-23T07:29:40;100910.73;;;0.09;71.69
50682;BME280;36779;52.168;20.878;2023-02-23T07:32:13;100907.77;;;0.12;71.69
50682;BME280;36779;52.168;20.878;2023-02-23T07:34:45;100906.71;;;0.15;71.68
50682;BME280;36779;52.168;20.878;2023-02-23T07:37:17;100911.20;;;0.23;71.68
50682;BME280;36779;52.168;20.878;2023-02-23T07:39:49;100911.59;;;0.32;71.74
50682;BME280;36779;52.168;20.878;2023-02-23T07:42:21;100904.26;;;0.45;71.99
50682;BME280;36779;52.168;20.878;2023-02-23T07:44:54;100895.29;;;0.83;72.51
50682;BME280;36779;52.168;20.878;2023-02-23T07:47:26;100896.46;;;1.38;73.02
50682;BME280;36779;52.168;20.878;2023-02-23T07:50:01;100895.16;;;1.86;72.98
50682;BME280;36779;52.168;20.878;2023-02-23T07:52:39;100889.60;;;2.16;72.61
50682;BME280;36779;52.168;20.878;2023-02-23T07:55:12;100884.77;;;2.21;72.08
50682;BME280;36779;52.168;20.878;2023-02-23T07:57:45;100886.45;;;2.10;71.51
50682;BME280;36779;52.168;20.878;2023-02-23T08:00:19;100884.98;;;1.95;71.20
50682;BME280;36779;52.168;20.878;2023-02-23T08:02:52;100878.27;;;1.78;71.02
50682;BME280;36779;52.168;20.878;2023-02-23T08:05:24;100870.60;;;1.66;71.09
50682;BME280;36779;52.168;20.878;2023-02-23T08:07:57;100868.14;;;1.63;71.30
50682;BME280;36779;52.168;20.878;2023-02-23T08:10:30;100865.70;;;1.60;71.19
50682;BME280;36779;52.168;20.878;2023-02-23T08:13:03;100863.67;;;1.56;71.17
50682;BME280;36779;52.168;20.878;2023-02-23T08:15:35;100861.98;;;1.47;71.09
50682;BME280;36779;52.168;20.878;2023-02-23T08:18:08;100860.88;;;1.38;71.08
50682;BME280;36779;52.168;20.878;2023-02-23T08:20:41;100857.52;;;1.36;71.27
50682;BME280;36779;52.168;20.878;2023-02-23T08:23:14;100857.02;;;1.38;71.30
50682;BME280;36779;52.168;20.878;2023-02-23T08:25:46;100848.84;;;1.47;71.41
50682;BME280;36779;52.168;20.878;2023-02-23T08:28:19;100852.56;;;1.52;71.37
50682;BME280;36779;52.168;20.878;2023-02-23T08:30:51;100855.05;;;1.54;71.38
50682;BME280;36779;52.168;20.878;2023-02-23T08:33:25;100855.58;;;1.62;71.56
50682;BME280;36779;52.168;20.878;2023-02-23T08:35:59;100852.40;;;1.71;71.60
50682;BME280;36779;52.168;20.878;2023-02-23T08:38:32;100849.30;;;1.82;71.78
50682;BME280;36779;52.168;20.878;2023-02-23T08:41:06;100847.34;;;1.96;71.88
50682;BME280;36779;52.168;20.878;2023-02-23T08:43:39;100847.57;;;2.04;71.80
50682;BME280;36779;52.168;20.878;2023-02-23T08:46:11;100841.72;;;2.00;71.61
50682;BME280;36779;52.168;20.878;2023-02-23T08:48:43;100839.73;;;1.98;71.64
50682;BME280;36779;52.168;20.878;2023-02-23T08:51:16;100838.60;;;2.05;71.76
50682;BME280;36779;52.168;20.878;2023-02-23T08:53:49;100840.70;;;2.07;71.61
50682;BME280;36779;52.168;20.878;2023-02-23T08:56:21;100835.67;;;2.06;71.56
50682;BME280;36779;52.168;20.878;2023-02-23T08:58:55;100830.95;;;2.12;71.72
50682;BME280;36779;52.168;20.878;2023-02-23T09:01:28;100830.56;;;2.12;71.54
50682;BME280;36779;52.168;20.878;2023-02-23T09:04:01;100829.33;;;2.10;71.49
50682;BME280;36779;52.168;20.878;2023-02-23T09:06:33;100823.59;;;2.12;71.58
50682;BME280;36779;52.168;20.878;2023-02-23T09:09:06;100825.31;;;2.21;71.67
50682;BME280;36779;52.168;20.878;2023-02-23T09:11:38;100823.95;;;2.34;71.80
50682;BME280;36779;52.168;20.878;2023-02-23T09:14:10;100821.66;;;2.47;71.83
50682;BME280;36779;52.168;20.878;2023-02-23T09:16:42;100822.77;;;2.57;71.86
50682;BME280;36779;52.168;20.878;2023-02-23T09:19:15;100820.12;;;2.66;71.67
50682;BME280;36779;52.168;20.878;2023-02-23T09:21:47;100816.97;;;2.68;71.63
50682;BME280;36779;52.168;20.878;2023-02-23T09:24:20;100815.94;;;2.81;71.93
50682;BME280;36779;52.168;20.878;2023-02-23T09:26:52;100812.40;;;3.00;72.05
50682;BME280;36779;52.168;20.878;2023-02-23T09:29:24;100807.29;;;3.19;72.08
50682;BME280;36779;52.168;20.878;2023-02-23T09:31:56;100808.27;;;3.48;72.27
50682;BME280;36779;52.168;20.878;2023-02-23T09:34:29;100806.57;;;3.72;72.13
50682;BME280;36779;52.168;20.878;2023-02-23T09:37:02;100799.78;;;3.96;71.97
50682;BME280;36779;52.168;20.878;2023-02-23T09:39:35;100798.95;;;4.15;71.87
50682;BME280;36779;52.168;20.878;2023-02-23T09:42:18;100796.03;;;4.31;71.70
50682;BME280;36779;52.168;20.878;2023-02-23T09:45:00;100785.99;;;4.45;71.55
50682;BME280;36779;52.168;20.878;2023-02-23T09:47:44;100784.55;;;4.60;71.46
50682;BME280;36779;52.168;20.878;2023-02-23T09:50:19;100781.84;;;4.68;71.31
50682;BME280;36779;52.168;20.878;2023-02-23T09:52:56;100780.61;;;4.78;71.27
50682;BME280;36779;52.168;20.878;2023-02-23T09:55:32;100780.52;;;4.97;71.28
50682;BME280;36779;52.168;20.878;2023-02-23T09:58:12;100776.42;;;5.16;71.29
50682;BME280;36779;52.168;20.878;2023-02-23T10:00:54;100776.56;;;5.39;71.47
50682;BME280;36779;52.168;20.878;2023-02-23T10:03:35;100773.25;;;5.66;71.31
50682;BME280;36779;52.168;20.878;2023-02-23T10:06:12;100771.98;;;5.89;71.36
50682;BME280;36779;52.168;20.878;2023-02-23T10:08:52;100767.69;;;6.10;71.30
50682;BME280;36779;52.168;20.878;2023-02-23T10:11:33;100762.35;;;6.32;71.18
50682;BME280;36779;52.168;20.878;2023-02-23T10:14:38;100759.25;;;6.48;70.92
50682;BME280;36779;52.168;20.878;2023-02-23T10:17:18;100759.80;;;6.52;70.75
50682;BME280;36779;52.168;20.878;2023-02-23T10:19:58;100754.85;;;6.67;70.73
50682;BME280;36779;52.168;20.878;2023-02-23T10:22:35;100752.94;;;6.79;70.83
50682;BME280;36779;52.168;20.878;2023-02-23T10:25:11;100750.55;;;6.87;70.52
50682;BME280;36779;52.168;20.878;2023-02-23T10:27:47;100743.36;;;6.84;70.50
50682;BME280;36779;52.168;20.878;2023-02-23T10:30:22;100740.11;;;6.93;70.81
50682;BME280;36779;52.168;20.878;2023-02-23T10:33:00;100737.08;;;7.10;70.94
50682;BME280;36779;52.168;20.878;2023-02-23T10:35:37;100736.44;;;7.16;70.62
50682;BME280;36779;52.168;20.878;2023-02-23T10:38:15;100732.23;;;7.15;70.65
50682;BME280;36779;52.168;20.878;2023-02-23T10:40:52;100729.02;;;7.14;70.53
50682;BME280;36779;52.168;20.878;2023-02-23T10:43:25;100725.00;;;6.97;70.13
50682;BME280;36779;52.168;20.878;2023-02-23T10:45:59;100717.96;;;6.73;70.20
50682;BME280;36779;52.168;20.878;2023-02-23T10:48:35;100715.77;;;6.59;70.26
50682;BME280;36779;52.168;20.878;2023-02-23T10:51:16;100709.58;;;6.47;70.33
50682;BME280;36779;52.168;20.878;2023-02-23T10:53:49;100701.55;;;6.42;70.41
50682;BME280;36779;52.168;20.878;2023-02-23T10:56:23;100696.84;;;6.36;70.33
50682;BME280;36779;52.168;20.878;2023-02-23T10:58:57;100694.47;;;6.27;70.20
50682;BME280;36779;52.168;20.878;2023-02-23T11:01:36;100690.59;;;6.16;70.12
50682;BME280;36779;52.168;20.878;2023-02-23T11:04:28;100688.75;;;6.00;70.04
50682;BME280;36779;52.168;20.878;2023-02-23T11:07:08;100683.00;;;5.88;70.02
50682;BME280;36779;52.168;20.878;2023-02-23T11:09:46;100681.59;;;5.74;70.02
50682;BME280;36779;52.168;20.878;2023-02-23T11:12:21;100675.05;;;5.68;70.13
50682;BME280;36779;52.168;20.878;2023-02-23T11:14:56;100673.13;;;5.68;70.15
50682;BME280;36779;52.168;20.878;2023-02-23T11:17:32;100672.09;;;5.63;70.06
50682;BME280;36779;52.168;20.878;2023-02-23T11:20:16;100661.58;;;5.58;70.21
50682;BME280;36779;52.168;20.878;2023-02-23T11:22:52;100661.77;;;5.58;70.13
50682;BME280;36779;52.168;20.878;2023-02-23T11:25:32;100653.70;;;5.53;69.99
50682;BME280;36779;52.168;20.878;2023-02-23T11:28:04;100652.52;;;5.41;69.93
50682;BME280;36779;52.168;20.878;2023-02-23T11:30:37;100646.42;;;5.38;70.00
50682;BME280;36779;52.168;20.878;2023-02-23T11:33:17;100643.27;;;5.38;70.03
50682;BME280;36779;52.168;20.878;2023-02-23T11:35:58;100638.33;;;5.38;70.11
50682;BME280;36779;52.168;20.878;2023-02-23T11:38:31;100633.98;;;5.39;70.08
50682;BME280;36779;52.168;20.878;2023-02-23T11:41:09;100633.79;;;5.41;70.06
50682;BME280;36779;52.168;20.878;2023-02-23T11:43:50;100628.77;;;5.40;70.04
50682;BME280;36779;52.168;20.878;2023-02-23T11:46:25;100625.47;;;5.33;69.83
50682;BME280;36779;52.168;20.878;2023-02-23T11:49:02;100618.63;;;5.29;69.99
50682;BME280;36779;52.168;20.878;2023-02-23T11:51:37;100613.83;;;5.29;70.01
50682;BME280;36779;52.168;20.878;2023-02-23T11:54:20;100613.03;;;5.28;70.00
50682;BME280;36779;52.168;20.878;2023-02-23T11:56:55;100613.56;;;5.26;69.84
50682;BME280;36779;52.168;20.878;2023-02-23T11:59:31;100606.17;;;5.24;69.96
50682;BME280;36779;52.168;20.878;2023-02-23T12:02:18;100601.02;;;5.26;70.02
50682;BME280;36779;52.168;20.878;2023-02-23T12:04:59;100595.43;;;5.32;70.09
50682;BME280;36779;52.168;20.878;2023-02-23T12:07:39;100589.33;;;5.34;69.98
50682;BME280;36779;52.168;20.878;2023-02-23T12:10:17;100588.47;;;5.33;69.96
50682;BME280;36779;52.168;20.878;2023-02-23T12:12:57;100585.52;;;5.33;69.79
50682;BME280;36779;52.168;20.878;2023-02-23T12:15:39;100576.20;;;5.32;69.93
50682;BME280;36779;52.168;20.878;2023-02-23T12:18:32;100575.11;;;5.35;69.97
50682;BME280;36779;52.168;20.878;2023-02-23T12:21:18;100570.30;;;5.38;70.00
50682;BME280;36779;52.168;20.878;2023-02-23T12:24:09;100569.85;;;5.43;70.05
50682;BME280;36779;52.168;20.878;2023-02-23T12:26:47;100563.72;;;5.45;69.94
50682;BME280;36779;52.168;20.878;2023-02-23T12:29:28;100559.23;;;5.44;69.89
50682;BME280;36779;52.168;20.878;2023-02-23T12:32:08;100553.17;;;5.45;69.97
50682;BME280;36779;52.168;20.878;2023-02-23T12:34:46;100548.14;;;5.44;69.83
50682;BME280;36779;52.168;20.878;2023-02-23T12:37:31;100546.07;;;5.41;69.76
50682;BME280;36779;52.168;20.878;2023-02-23T12:40:15;100545.59;;;5.40;69.84
50682;BME280;36779;52.168;20.878;2023-02-23T12:42:53;100541.66;;;5.46;69.92
50682;BME280;36779;52.168;20.878;2023-02-23T12:45:34;100534.84;;;5.49;69.87
50682;BME280;36779;52.168;20.878;2023-02-23T12:48:16;100530.65;;;5.51;69.82
50682;BME280;36779;52.168;20.878;2023-02-23T12:50:53;100525.65;;;5.52;69.78
50682;BME280;36779;52.168;20.878;2023-02-23T12:53:33;100525.77;;;5.52;69.83
50682;BME280;36779;52.168;20.878;2023-02-23T12:56:13;100519.52;;;5.51;69.71
50682;BME280;36779;52.168;20.878;2023-02-23T12:58:58;100519.55;;;5.47;69.62
50682;BME280;36779;52.168;20.878;2023-02-23T13:01:38;100515.48;;;5.42;69.54
50682;BME280;36779;52.168;20.878;2023-02-23T13:07:23;100506.23;;;5.34;69.59
50682;BME280;36779;52.168;20.878;2023-02-23T13:10:14;100505.38;;;5.34;69.47
50682;BME280;36779;52.168;20.878;2023-02-23T13:12:58;100500.46;;;5.32;69.59
50682;BME280;36779;52.168;20.878;2023-02-23T13:15:48;100499.98;;;5.32;69.53
50682;BME280;36779;52.168;20.878;2023-02-23T13:18:25;100496.01;;;5.33;69.60
50682;BME280;36779;52.168;20.878;2023-02-23T13:21:04;100492.73;;;5.29;69.43
50682;BME280;36779;52.168;20.878;2023-02-23T13:23:41;100493.27;;;5.23;69.34
50682;BME280;36779;52.168;20.878;2023-02-23T13:26:25;100487.38;;;5.19;69.37
50682;BME280;36779;52.168;20.878;2023-02-23T13:29:04;100480.95;;;5.16;69.37
50682;BME280;36779;52.168;20.878;2023-02-23T13:31:39;100479.16;;;5.17;69.38
50682;BME280;36779;52.168;20.878;2023-02-23T13:34:23;100474.85;;;5.15;69.32
50682;BME280;36779;52.168;20.878;2023-02-23T13:36:59;100469.81;;;5.14;69.48
50682;BME280;36779;52.168;20.878;2023-02-23T13:39:47;100466.61;;;5.17;69.57
50682;BME280;36779;52.168;20.878;2023-02-23T13:42:31;100465.98;;;5.20;69.48
50682;BME280;36779;52.168;20.878;2023-02-23T13:45:21;100463.21;;;5.24;69.56
50682;BME280;36779;52.168;20.878;2023-02-23T13:47:57;100459.60;;;5.28;69.46
50682;BME280;36779;52.168;20.878;2023-02-23T13:50:39;100454.38;;;5.29;69.44
50682;BME280;36779;52.168;20.878;2023-02-23T13:53:35;100453.04;;;5.32;69.52
50682;BME280;36779;52.168;20.878;2023-02-23T13:56:13;100451.26;;;5.37;69.55
50682;BME280;36779;52.168;20.878;2023-02-23T13:58:50;100446.36;;;5.38;69.49
50682;BME280;36779;52.168;20.878;2023-02-23T14:01:28;100440.73;;;5.40;69.55
50682;BME280;36779;52.168;20.878;2023-02-23T14:04:06;100435.27;;;5.42;69.44
50682;BME280;36779;52.168;20.878;2023-02-23T14:06:53;100430.98;;;5.41;69.30
50682;BME280;36779;52.168;20.878;2023-02-23T14:09:30;100430.70;;;5.36;69.26
50682;BME280;36779;52.168;20.878;2023-02-23T14:12:15;100431.96;;;5.34;69.24
50682;BME280;36779;52.168;20.878;2023-02-23T14:14:49;100426.63;;;5.32;69.37
50682;BME280;36779;52.168;20.878;2023-02-23T14:17:55;100426.44;;;5.32;69.32
50682;BME280;36779;52.168;20.878;2023-02-23T14:20:51;100422.94;;;5.30;69.27
50682;BME280;36779;52.168;20.878;2023-02-23T14:23:35;100420.63;;;5.30;69.33
50682;BME280;36779;52.168;20.878;2023-02-23T14:26:14;100412.37;;;5.30;69.22
50682;BME280;36779;52.168;20.878;2023-02-23T14:28:54;100410.69;;;5.29;69.09
50682;BME280;36779;52.168;20.878;2023-02-23T14:31:54;100404.46;;;5.27;69.22
50682;BME280;36779;52.168;20.878;2023-02-23T14:37:33;100401.45;;;5.24;69.14
50682;BME280;36779;52.168;20.878;2023-02-23T14:40:13;100401.50;;;5.23;69.16
50682;BME280;36779;52.168;20.878;2023-02-23T14:42:51;100394.09;;;5.21;69.20
50682;BME280;36779;52.168;20.878;2023-02-23T14:45:25;100396.90;;;5.18;69.06
50682;BME280;36779;52.168;20.878;2023-02-23T14:48:00;100395.30;;;5.14;69.10
50682;BME280;36779;52.168;20.878;2023-02-23T14:50:35;100390.95;;;5.11;69.06
50682;BME280;36779;52.168;20.878;2023-02-23T14:53:15;100389.84;;;5.10;69.01
50682;BME280;36779;52.168;20.878;2023-02-23T14:55:49;100383.14;;;5.08;69.00
50682;BME280;36779;52.168;20.878;2023-02-23T14:58:25;100381.80;;;5.05;69.05
50682;BME280;36779;52.168;20.878;2023-02-23T15:00:57;100377.83;;;5.02;68.94
50682;BME280;36779;52.168;20.878;2023-02-23T15:03:30;100377.25;;;4.99;69.00
50682;BME280;36779;52.168;20.878;2023-02-23T15:06:05;100375.02;;;4.95;68.98
50682;BME280;36779;52.168;20.878;2023-02-23T15:08:42;100369.70;;;4.94;68.89
50682;BME280;36779;52.168;20.878;2023-02-23T15:11:15;100369.82;;;4.92;68.92
50682;BME280;36779;52.168;20.878;2023-02-23T15:13:50;100367.42;;;4.89;68.90
50682;BME280;36779;52.168;20.878;2023-02-23T15:16:29;100362.02;;;4.84;68.89
50682;BME280;36779;52.168;20.878;2023-02-23T15:19:05;100355.45;;;4.81;68.97
50682;BME280;36779;52.168;20.878;2023-02-23T15:21:37;100356.38;;;4.78;68.94
50682;BME280;36779;52.168;20.878;2023-02-23T15:24:12;100355.23;;;4.75;68.87
50682;BME280;36779;52.168;20.878;2023-02-23T15:26:46;100351.98;;;4.71;68.87